createdAt,value
2018-07-21T00:00:48.731Z,89.37
2018-07-21T00:01:48.740Z,89.42
2018-07-21T00:02:48.734Z,90.09
2018-07-21T00:03:48.468Z,90.09
2018-07-21T00:04:48.462Z,90.23
2018-07-21T00:05:48.710Z,89.86
2018-07-21T00:06:48.709Z,90.33
2018-07-21T00:07:48.701Z,90.81
2018-07-21T00:08:48.702Z,90.43
2018-07-21T00:09:48.441Z,90.23
2018-07-21T00:10:48.689Z,90.14
2018-07-21T00:11:48.686Z,90.33
2018-07-21T00:12:48.683Z,90.53
2018-07-21T00:13:48.678Z,90.53
2018-07-21T00:14:48.670Z,91.49
2018-07-21T00:15:48.670Z,91.49
2018-07-21T00:16:48.662Z,91.19
2018-07-21T00:17:48.657Z,91.67
2018-07-21T00:18:48.654Z,91.1
2018-07-21T00:19:48.648Z,91.29
2018-07-21T00:20:48.647Z,91.39
2018-07-21T00:21:48.638Z,91
2018-07-21T00:22:48.633Z,91.1
2018-07-21T00:23:48.629Z,91.19
2018-07-21T00:24:48.624Z,91.29
2018-07-21T00:25:48.621Z,90.91
2018-07-21T00:26:48.624Z,91.19
2018-07-21T00:27:48.611Z,91.29
2018-07-21T00:28:48.607Z,91.29
2018-07-21T00:29:48.604Z,91
2018-07-21T00:30:48.596Z,90.91
2018-07-21T00:31:48.592Z,91.1
2018-07-21T00:32:48.593Z,90.91
2018-07-21T00:33:48.584Z,91.1
2018-07-21T00:34:48.578Z,91.1
2018-07-21T00:35:48.575Z,91.19
2018-07-21T00:36:48.571Z,91
2018-07-21T00:37:48.565Z,90.43
2018-07-21T00:38:48.560Z,90.81
2018-07-21T00:39:48.555Z,90.62
2018-07-21T00:40:48.553Z,90.53
2018-07-21T00:41:48.546Z,89.95
2018-07-21T00:42:48.294Z,89.47
2018-07-21T00:43:48.537Z,89.66
2018-07-21T00:44:48.281Z,89.66
2018-07-21T00:45:48.528Z,89.18
2018-07-21T00:46:48.524Z,88.9
2018-07-21T00:47:48.523Z,88.8
2018-07-21T00:48:48.516Z,88.7
2018-07-21T00:49:48.262Z,88.61
2018-07-21T00:50:48.507Z,88.84
2018-07-21T00:51:48.501Z,88.8
2018-07-21T00:52:48.496Z,88.75
2018-07-21T00:53:48.492Z,89.13
2018-07-21T00:54:48.236Z,88.46
2018-07-21T00:55:48.230Z,88.56
2018-07-21T00:56:48.479Z,88.46
2018-07-21T00:57:48.474Z,88.84
2018-07-21T00:58:48.470Z,88.75
2018-07-21T00:59:48.463Z,88.37
2018-07-21T01:00:48.459Z,88.56
2018-07-21T01:01:48.459Z,88.46
2018-07-21T01:02:48.465Z,88.84
2018-07-21T01:03:48.447Z,88.84
2018-07-21T01:04:48.453Z,89.23
2018-07-21T01:05:48.438Z,89.32
2018-07-21T01:06:48.431Z,89.32
2018-07-21T01:07:48.442Z,90.09
2018-07-21T01:08:48.430Z,90.86
2018-07-21T01:09:48.424Z,89.8
2018-07-21T01:10:48.414Z,90.95
2018-07-21T01:11:48.409Z,90.57
2018-07-21T01:12:48.404Z,91.24
2018-07-21T01:13:48.158Z,91.24
2018-07-21T01:14:48.396Z,91.05
2018-07-21T01:15:48.394Z,91.43
2018-07-21T01:16:48.387Z,91.34
2018-07-21T01:17:48.130Z,91.34
2018-07-21T01:18:48.383Z,91.43
2018-07-21T01:19:48.374Z,91.14
2018-07-21T01:20:48.368Z,91.34
2018-07-21T01:21:48.364Z,91.14
2018-07-21T01:22:48.109Z,91.14
2018-07-21T01:23:48.103Z,90.76
2018-07-21T01:24:48.350Z,90.86
2018-07-21T01:25:48.347Z,90.57
2018-07-21T01:26:48.342Z,91.24
2018-07-21T01:27:48.336Z,90.76
2018-07-21T01:28:48.330Z,90.76
2018-07-21T01:29:48.327Z,90.67
2018-07-21T01:30:48.573Z,90.76
2018-07-21T01:31:48.323Z,91.14
2018-07-21T01:32:48.327Z,91.43
2018-07-21T01:33:48.310Z,91.24
2018-07-21T01:34:48.304Z,91.43
2018-07-21T01:35:48.299Z,91.34
2018-07-21T01:36:48.298Z,91.24
2018-07-21T01:37:48.310Z,91.43
2018-07-21T01:38:48.286Z,91.14
2018-07-21T01:39:48.291Z,91.34
2018-07-21T01:40:48.283Z,91.24
2018-07-21T01:41:48.022Z,91.43
2018-07-21T01:42:48.269Z,91.1
2018-07-21T01:43:48.265Z,91.39
2018-07-21T01:44:48.264Z,91.29
2018-07-21T01:45:48.003Z,91.19
2018-07-21T01:46:48.251Z,91
2018-07-21T01:47:48.259Z,91.1
2018-07-21T01:48:48.241Z,91.19
2018-07-21T01:49:48.240Z,91.39
2018-07-21T01:50:48.230Z,91.39
2018-07-21T01:51:48.227Z,91.39
2018-07-21T01:52:48.231Z,90.91
2018-07-21T01:53:48.217Z,91
2018-07-21T01:54:48.211Z,90.72
2018-07-21T01:55:48.207Z,90.43
2018-07-21T01:56:48.209Z,90.72
2018-07-21T01:57:47.946Z,90.81
2018-07-21T01:58:48.214Z,90.53
2018-07-21T01:59:48.192Z,89.95
2018-07-21T02:00:48.185Z,90.43
2018-07-21T02:01:48.442Z,90.91
2018-07-21T02:02:48.174Z,90.53
2018-07-21T02:03:48.169Z,91.29
2018-07-21T02:04:48.166Z,90.33
2018-07-21T02:05:48.159Z,91
2018-07-21T02:06:47.904Z,90.72
2018-07-21T02:07:47.901Z,91
2018-07-21T02:08:47.896Z,91
2018-07-21T02:09:48.141Z,90.53
2018-07-21T02:10:48.138Z,90.81
2018-07-21T02:11:48.134Z,90.43
2018-07-21T02:12:48.257Z,90.62
2018-07-21T02:13:48.139Z,90.53
2018-07-21T02:14:48.121Z,90.81
2018-07-21T02:15:48.126Z,90.72
2018-07-21T02:16:48.110Z,90.81
2018-07-21T02:17:47.851Z,90.81
2018-07-21T02:18:48.099Z,90.53
2018-07-21T02:19:48.094Z,90.33
2018-07-21T02:20:48.089Z,90.33
2018-07-21T02:21:48.084Z,90.33
2018-07-21T02:22:47.828Z,90.43
2018-07-21T02:23:48.228Z,90.43
2018-07-21T02:24:47.818Z,90.43
2018-07-21T02:25:47.813Z,90.91
2018-07-21T02:26:48.062Z,90.62
2018-07-21T02:27:48.060Z,90.72
2018-07-21T02:28:48.056Z,90.77
2018-07-21T02:29:47.798Z,91
2018-07-21T02:30:48.044Z,90.43
2018-07-21T02:31:48.037Z,90.19
2018-07-21T02:32:48.281Z,90.29
2018-07-21T02:33:47.779Z,90.39
2018-07-21T02:34:48.023Z,91.25
2018-07-21T02:35:48.020Z,90.96
2018-07-21T02:36:48.014Z,91.15
2018-07-21T02:37:47.758Z,91.25
2018-07-21T02:38:47.750Z,91.49
2018-07-21T02:39:47.746Z,91.44
2018-07-21T02:40:47.741Z,91.34
2018-07-21T02:41:47.987Z,91.82
2018-07-21T02:42:47.734Z,91.82
2018-07-21T02:43:47.750Z,91.63
2018-07-21T02:44:47.728Z,91.92
2018-07-21T02:45:48.107Z,91.92
2018-07-21T02:46:47.711Z,92.21
2018-07-21T02:47:47.714Z,92.21
2018-07-21T02:48:47.713Z,92.01
2018-07-21T02:49:47.704Z,91.82
2018-07-21T02:50:47.695Z,91.82
2018-07-21T02:51:47.951Z,91.63
2018-07-21T02:52:47.681Z,92.01
2018-07-21T02:53:47.680Z,91.82
2018-07-21T02:54:47.928Z,91.25
2018-07-21T02:55:47.667Z,91.44
2018-07-21T02:56:47.662Z,91.82
2018-07-21T02:57:47.913Z,91.63
2018-07-21T02:58:47.653Z,91.82
2018-07-21T02:59:47.901Z,91.53
2018-07-21T03:00:47.894Z,91.72
2018-07-21T03:01:47.638Z,92.01
2018-07-21T03:02:47.632Z,91.82
2018-07-21T03:03:47.928Z,91.82
2018-07-21T03:04:47.880Z,91.72
2018-07-21T03:05:47.902Z,91.92
2018-07-21T03:06:47.873Z,91.82
2018-07-21T03:07:47.869Z,91.82
2018-07-21T03:08:47.604Z,91.63
2018-07-21T03:09:47.855Z,91.92
2018-07-21T03:10:47.597Z,91.72
2018-07-21T03:11:47.590Z,91.82
2018-07-21T03:12:47.585Z,91.92
2018-07-21T03:13:47.583Z,92.3
2018-07-21T03:14:47.574Z,92.49
2018-07-21T03:15:47.828Z,91.82
2018-07-21T03:16:47.834Z,92.3
2018-07-21T03:17:47.567Z,91.82
2018-07-21T03:18:47.555Z,91.82
2018-07-21T03:19:47.552Z,92.01
2018-07-21T03:20:47.545Z,92.49
2018-07-21T03:21:47.539Z,92.11
2018-07-21T03:22:47.788Z,92.3
2018-07-21T03:23:47.531Z,92.3
2018-07-21T03:24:47.788Z,92.4
2018-07-21T03:25:47.521Z,92.3
2018-07-21T03:26:47.515Z,92.21
2018-07-21T03:27:47.512Z,91.82
2018-07-21T03:28:47.506Z,91.72
2018-07-21T03:29:47.502Z,92.58
2018-07-21T03:30:47.871Z,92.68
2018-07-21T03:31:47.754Z,92.78
2018-07-21T03:32:47.485Z,92.82
2018-07-21T03:33:47.483Z,92.63
2018-07-21T03:34:47.476Z,92.3
2018-07-21T03:35:47.472Z,92.54
2018-07-21T03:36:47.467Z,91.96
2018-07-21T03:37:47.713Z,91.96
2018-07-21T03:38:47.715Z,91.67
2018-07-21T03:39:47.736Z,92.06
2018-07-21T03:40:47.701Z,92.06
2018-07-21T03:41:47.695Z,92.54
2018-07-21T03:42:47.695Z,92.35
2018-07-21T03:43:47.692Z,92.06
2018-07-21T03:44:47.427Z,92.15
2018-07-21T03:45:47.423Z,92.15
2018-07-21T03:46:47.421Z,92.44
2018-07-21T03:47:47.415Z,92.35
2018-07-21T03:48:47.661Z,92.44
2018-07-21T03:49:47.409Z,91.67
2018-07-21T03:50:47.401Z,92.44
2018-07-21T03:51:47.395Z,92.06
2018-07-21T03:52:47.649Z,92.68
2018-07-21T03:53:47.387Z,92.1
2018-07-21T03:54:47.644Z,91.91
2018-07-21T03:55:47.633Z,92.2
2018-07-21T03:56:47.375Z,91.82
2018-07-21T03:57:47.368Z,92.01
2018-07-21T03:58:47.617Z,91.77
2018-07-21T03:59:47.359Z,91.86
2018-07-21T04:00:47.356Z,91.67
2018-07-21T04:01:47.609Z,91.48
2018-07-21T04:02:47.597Z,90.71
2018-07-21T04:03:47.343Z,90.56
2018-07-21T04:04:47.596Z,90.56
2018-07-21T04:05:47.591Z,90.18
2018-07-21T04:06:47.331Z,89.46
2018-07-21T04:07:47.587Z,89.46
2018-07-21T04:08:47.324Z,88.98
2018-07-21T04:09:47.321Z,88.93
2018-07-21T04:10:47.317Z,88.25
2018-07-21T04:11:47.574Z,87.92
2018-07-21T04:12:47.311Z,86.95
2018-07-21T04:13:47.307Z,86.57
2018-07-21T04:14:47.557Z,86.52
2018-07-21T04:15:47.555Z,86.13
2018-07-21T04:16:47.556Z,84.69
2018-07-21T04:17:47.549Z,84.92
2018-07-21T04:18:47.546Z,84.25
2018-07-21T04:19:47.549Z,84.25
2018-07-21T04:20:47.556Z,84.16
2018-07-21T04:21:47.547Z,83.67
2018-07-21T04:22:47.540Z,82.81
2018-07-21T04:23:47.283Z,82.17
2018-07-21T04:24:47.545Z,82.42
2018-07-21T04:25:47.534Z,82.71
2018-07-21T04:26:47.284Z,82.61
2018-07-21T04:27:47.274Z,82.37
2018-07-21T04:28:47.272Z,82.27
2018-07-21T04:29:47.271Z,81.79
2018-07-21T04:30:47.532Z,80.68
2018-07-21T04:31:47.267Z,80.38
2018-07-21T04:32:47.266Z,79.43
2018-07-21T04:33:47.519Z,79.13
2018-07-21T04:34:47.263Z,79.33
2018-07-21T04:35:47.261Z,79.33
2018-07-21T04:36:47.511Z,79.17
2018-07-21T04:37:47.260Z,78.59
2018-07-21T04:38:47.515Z,78.79
2018-07-21T04:39:47.513Z,78.5
2018-07-21T04:40:47.256Z,78.5
2018-07-21T04:41:47.254Z,78.5
2018-07-21T04:42:47.253Z,77.53
2018-07-21T04:43:47.252Z,77.73
2018-07-21T04:44:47.251Z,77.34
2018-07-21T04:45:47.506Z,77.67
2018-07-21T04:46:47.502Z,77.28
2018-07-21T04:47:47.507Z,76.8
2018-07-21T04:48:47.502Z,76.13
2018-07-21T04:49:47.501Z,75.88
2018-07-21T04:50:47.502Z,75.88
2018-07-21T04:51:47.500Z,75.1
2018-07-21T04:52:47.498Z,73.99
2018-07-21T04:53:47.523Z,73.15
2018-07-21T04:54:47.500Z,72.38
2018-07-21T04:55:47.503Z,71.16
2018-07-21T04:56:47.248Z,71.39
2018-07-21T04:57:47.502Z,69.84
2018-07-21T04:58:47.250Z,69.68
2018-07-21T04:59:47.510Z,68.27
2018-07-21T05:00:47.703Z,67.14
2018-07-21T05:01:47.254Z,65.88
2018-07-21T05:02:47.510Z,64.66
2018-07-21T05:03:47.257Z,63.53
2018-07-21T05:04:47.514Z,62.3
2018-07-21T05:05:47.515Z,61.43
2018-07-21T05:06:47.517Z,60.85
2018-07-21T05:07:47.268Z,60.3
2018-07-21T05:08:47.521Z,58.65
2018-07-21T05:09:47.550Z,58.58
2018-07-21T05:10:47.279Z,58.67
2018-07-21T05:11:47.545Z,56.96
2018-07-21T05:12:47.289Z,55.92
2018-07-21T05:13:47.294Z,55.92
2018-07-21T05:14:47.554Z,55.17
2018-07-21T05:15:47.299Z,54
2018-07-21T05:16:47.557Z,53.16
2018-07-21T05:17:47.310Z,53.06
2018-07-21T05:18:47.315Z,52.59
2018-07-21T05:19:47.575Z,52.01
2018-07-21T05:20:47.326Z,50.97
2018-07-21T05:21:47.596Z,50.09
2018-07-21T05:22:47.593Z,49.15
2018-07-21T05:23:47.345Z,50.12
2018-07-21T05:24:47.604Z,48.85
2018-07-21T05:25:47.359Z,48.95
2018-07-21T05:26:47.623Z,48.19
2018-07-21T05:27:47.371Z,48.39
2018-07-21T05:28:47.378Z,48.27
2018-07-21T05:29:47.385Z,47.98
2018-07-21T05:30:47.649Z,47.69
2018-07-21T05:31:47.656Z,48.17
2018-07-21T05:32:47.406Z,47.22
2018-07-21T05:33:47.665Z,47.3
2018-07-21T05:34:47.464Z,47.42
2018-07-21T05:35:47.685Z,47.39
2018-07-21T05:36:47.436Z,47.1
2018-07-21T05:37:47.443Z,47.42
2018-07-21T05:38:47.449Z,46.54
2018-07-21T05:39:47.708Z,47.13
2018-07-21T05:40:47.472Z,46.25
2018-07-21T05:41:47.473Z,47.03
2018-07-21T05:42:47.480Z,47.1
2018-07-21T05:43:47.747Z,46.93
2018-07-21T05:44:47.506Z,46.93
2018-07-21T05:45:47.505Z,46.17
2018-07-21T05:46:47.511Z,45.98
2018-07-21T05:47:47.520Z,45.32
2018-07-21T05:48:47.526Z,44.95
2018-07-21T05:49:47.793Z,44.48
2018-07-21T05:50:47.812Z,43.32
2018-07-21T05:51:47.551Z,42.55
2018-07-21T05:52:47.559Z,42.48
2018-07-21T05:53:47.819Z,41.7
2018-07-21T05:54:47.577Z,41.33
2018-07-21T05:55:47.585Z,40.86
2018-07-21T05:56:47.595Z,41.07
2018-07-21T05:57:47.603Z,40.09
2018-07-21T05:58:47.612Z,39.53
2018-07-21T05:59:47.874Z,38.35
2018-07-21T06:00:47.631Z,38.75
2018-07-21T06:01:47.890Z,38.65
2018-07-21T06:02:48.098Z,38.35
2018-07-21T06:03:47.914Z,38.55
2018-07-21T06:04:47.668Z,38.65
2018-07-21T06:05:47.928Z,38.67
2018-07-21T06:06:47.941Z,37.88
2018-07-21T06:07:47.959Z,37.79
2018-07-21T06:08:47.974Z,37.88
2018-07-21T06:09:47.716Z,37.88
2018-07-21T06:10:48.235Z,38.06
2018-07-21T06:11:47.988Z,37.96
2018-07-21T06:12:47.747Z,38.06
2018-07-21T06:13:47.756Z,37.79
2018-07-21T06:14:48.019Z,37.88
2018-07-21T06:15:48.025Z,37.69
2018-07-21T06:16:47.786Z,37.19
2018-07-21T06:17:48.050Z,37.61
2018-07-21T06:18:48.267Z,37.61
2018-07-21T06:19:48.077Z,36.74
2018-07-21T06:20:48.078Z,37.45
2018-07-21T06:21:47.838Z,36.58
2018-07-21T06:22:47.848Z,35.42
2018-07-21T06:23:48.252Z,34.56
2018-07-21T06:24:48.122Z,34.36
2018-07-21T06:25:47.882Z,33.28
2018-07-21T06:26:48.146Z,33.2
2018-07-21T06:27:48.162Z,33.48
2018-07-21T06:28:47.916Z,33.67
2018-07-21T06:29:48.181Z,33.75
2018-07-21T06:30:48.192Z,33.77
2018-07-21T06:31:48.207Z,33.28
2018-07-21T06:32:48.012Z,32.89
2018-07-21T06:33:48.233Z,32.89
2018-07-21T06:34:48.241Z,31.9
2018-07-21T06:35:48.253Z,32.69
2018-07-21T06:36:48.017Z,32.9
2018-07-21T06:37:48.277Z,32.61
2018-07-21T06:38:48.292Z,32.41
2018-07-21T06:39:48.308Z,32.23
2018-07-21T06:40:48.320Z,31.74
2018-07-21T06:41:48.583Z,30.68
2018-07-21T06:42:48.092Z,31.07
2018-07-21T06:43:48.430Z,31.35
2018-07-21T06:44:48.371Z,30.76
2018-07-21T06:45:48.131Z,30.08
2018-07-21T06:46:48.395Z,30.08
2018-07-21T06:47:48.410Z,29.3
2018-07-21T06:48:48.422Z,29
2018-07-21T06:49:48.442Z,29.89
2018-07-21T06:50:48.450Z,29.2
2018-07-21T06:51:48.462Z,29
2018-07-21T06:52:48.476Z,28.23
2018-07-21T06:53:48.238Z,27.64
2018-07-21T06:54:48.503Z,27.64
2018-07-21T06:55:48.265Z,26.97
2018-07-21T06:56:48.532Z,26.97
2018-07-21T06:57:48.549Z,26.56
2018-07-21T06:58:48.558Z,26.56
2018-07-21T06:59:48.571Z,26.75
2018-07-21T07:00:48.587Z,27.04
2018-07-21T07:01:48.599Z,27.51
2018-07-21T07:02:48.611Z,28.19
2018-07-21T07:03:48.627Z,28.88
2018-07-21T07:04:48.801Z,28.09
2018-07-21T07:05:48.658Z,28
2018-07-21T07:06:48.416Z,27.81
2018-07-21T07:07:48.429Z,27.81
2018-07-21T07:08:48.695Z,27.04
2018-07-21T07:09:48.456Z,27.15
2018-07-21T07:10:48.724Z,26.95
2018-07-21T07:11:48.736Z,26.36
2018-07-21T07:12:48.754Z,26.75
2018-07-21T07:13:48.763Z,25.68
2018-07-21T07:14:48.526Z,25.29
2018-07-21T07:15:48.793Z,24.51
2018-07-21T07:16:48.806Z,24
2018-07-21T07:17:48.823Z,24.19
2018-07-21T07:18:48.844Z,25.16
2018-07-21T07:19:48.847Z,25.92
2018-07-21T07:20:48.860Z,26.68
2018-07-21T07:21:48.883Z,27.45
2018-07-21T07:22:48.888Z,27.94
2018-07-21T07:23:48.898Z,27.83
2018-07-21T07:24:48.912Z,27.91
2018-07-21T07:25:48.923Z,27.72
2018-07-21T07:26:48.934Z,28.99
2018-07-21T07:27:48.949Z,29.36
2018-07-21T07:28:48.961Z,29.94
2018-07-21T07:29:48.980Z,29.94
2018-07-21T07:30:48.985Z,30.13
2018-07-21T07:31:48.993Z,30.04
2018-07-21T07:32:49.001Z,30.71
2018-07-21T07:33:49.012Z,30.12
2018-07-21T07:34:48.772Z,31.2
2018-07-21T07:35:48.782Z,31.18
2018-07-21T07:36:49.043Z,31.28
2018-07-21T07:37:49.053Z,31.56
2018-07-21T07:38:49.063Z,31.85
2018-07-21T07:39:49.076Z,32.43
2018-07-21T07:40:49.082Z,32.81
2018-07-21T07:41:49.094Z,32.71
2018-07-21T07:42:48.850Z,32.81
2018-07-21T07:43:49.110Z,33.11
2018-07-21T07:44:49.137Z,32.81
2018-07-21T07:45:49.134Z,32.24
2018-07-21T07:46:49.155Z,32.45
2018-07-21T07:47:49.147Z,32.45
2018-07-21T07:48:49.158Z,31.2
2018-07-21T07:49:49.168Z,31
2018-07-21T07:50:48.934Z,31.18
2018-07-21T07:51:49.187Z,31.67
2018-07-21T07:52:49.195Z,32.24
2018-07-21T07:53:49.206Z,32.73
2018-07-21T07:54:49.217Z,32.73
2018-07-21T07:55:49.227Z,32.53
2018-07-21T07:56:49.239Z,31.95
2018-07-21T07:57:49.249Z,32.35
2018-07-21T07:58:49.265Z,32.16
2018-07-21T07:59:49.274Z,31.2
2018-07-21T08:00:49.284Z,31.51
2018-07-21T08:01:49.287Z,31.32
2018-07-21T08:02:49.299Z,29.3
2018-07-21T08:03:49.057Z,29.8
2018-07-21T08:04:49.319Z,28.93
2018-07-21T08:05:49.332Z,28.55
2018-07-21T08:06:49.341Z,29.14
2018-07-21T08:07:49.360Z,28.29
2018-07-21T08:08:49.115Z,26.92
2018-07-21T08:09:49.378Z,26.64
2018-07-21T08:10:49.147Z,26.84
2018-07-21T08:11:49.409Z,26.82
2018-07-21T08:12:49.416Z,26.15
2018-07-21T08:13:49.431Z,26.24
2018-07-21T08:14:49.459Z,26.34
2018-07-21T08:15:49.460Z,26.63
2018-07-21T08:16:49.476Z,26.63
2018-07-21T08:17:49.484Z,26.45
2018-07-21T08:18:49.499Z,25.85
2018-07-21T08:19:49.513Z,26.07
2018-07-21T08:20:49.529Z,25.18
2018-07-21T08:21:49.547Z,25.87
2018-07-21T08:22:49.598Z,24.99
2018-07-21T08:23:49.576Z,25.29
2018-07-21T08:24:49.593Z,25.38
2018-07-21T08:25:49.602Z,26.08
2018-07-21T08:26:49.616Z,25.28
2018-07-21T08:27:49.630Z,25.18
2018-07-21T08:28:49.644Z,25.27
2018-07-21T08:29:49.409Z,25.17
2018-07-21T08:30:49.430Z,24.66
2018-07-21T08:31:49.692Z,24.86
2018-07-21T08:32:49.709Z,25.05
2018-07-21T08:33:49.724Z,25.93
2018-07-21T08:34:49.735Z,26.82
2018-07-21T08:35:49.499Z,26.73
2018-07-21T08:36:49.767Z,26.92
2018-07-21T08:37:49.527Z,27.11
2018-07-21T08:38:49.797Z,27.6
2018-07-21T08:39:49.809Z,27.99
2018-07-21T08:40:49.824Z,27.99
2018-07-21T08:41:49.842Z,28.89
2018-07-21T08:42:49.850Z,27.81
2018-07-21T08:43:49.867Z,26.84
2018-07-21T08:44:49.625Z,26.45
2018-07-21T08:45:49.897Z,26.73
2018-07-21T08:46:49.906Z,26.91
2018-07-21T08:47:49.919Z,26.9
2018-07-21T08:48:49.688Z,26.61
2018-07-21T08:49:49.805Z,26.8
2018-07-21T08:50:49.969Z,27.09
2018-07-21T08:51:49.975Z,26.7
2018-07-21T08:52:49.989Z,26.8
2018-07-21T08:53:49.757Z,27.08
2018-07-21T08:54:50.025Z,26.89
2018-07-21T08:55:50.242Z,27.56
2018-07-21T08:56:50.044Z,28.03
2018-07-21T08:57:50.056Z,28.61
2018-07-21T08:58:50.069Z,29.08
2018-07-21T08:59:50.083Z,29.17
2018-07-21T09:00:50.094Z,29.94
2018-07-21T09:01:50.109Z,30.12
2018-07-21T09:02:50.119Z,30.49
2018-07-21T09:03:50.130Z,30.97
2018-07-21T09:04:50.141Z,31.75
2018-07-21T09:05:50.334Z,32.04
2018-07-21T09:06:50.172Z,33.01
2018-07-21T09:07:50.207Z,32.79
2018-07-21T09:08:50.183Z,33.36
2018-07-21T09:09:50.190Z,33.95
2018-07-21T09:10:50.207Z,34.32
2018-07-21T09:11:50.210Z,35.18
2018-07-21T09:12:50.225Z,35.65
2018-07-21T09:13:50.228Z,35.34
2018-07-21T09:14:49.982Z,35.73
2018-07-21T09:15:50.241Z,35.52
2018-07-21T09:16:50.247Z,36.1
2018-07-21T09:17:50.258Z,35.81
2018-07-21T09:18:50.262Z,36.67
2018-07-21T09:19:50.273Z,36.28
2018-07-21T09:20:50.276Z,36.77
2018-07-21T09:21:50.290Z,37.24
2018-07-21T09:22:50.304Z,37.43
2018-07-21T09:23:50.296Z,37.04
2018-07-21T09:24:50.302Z,36.85
2018-07-21T09:25:50.310Z,37.24
2018-07-21T09:26:50.317Z,37.52
2018-07-21T09:27:50.067Z,37.43
2018-07-21T09:28:50.324Z,37.6
2018-07-21T09:29:50.330Z,37.6
2018-07-21T09:30:50.337Z,37.12
2018-07-21T09:31:50.341Z,37.9
2018-07-21T09:32:50.347Z,37.9
2018-07-21T09:33:50.353Z,38.29
2018-07-21T09:34:50.362Z,38.39
2018-07-21T09:35:50.364Z,37.8
2018-07-21T09:36:50.136Z,37.6
2018-07-21T09:37:50.369Z,37.32
2018-07-21T09:38:50.377Z,37.51
2018-07-21T09:39:50.379Z,37.51
2018-07-21T09:40:50.385Z,37.9
2018-07-21T09:41:50.390Z,37.78
2018-07-21T09:42:50.398Z,38.37
2018-07-21T09:43:50.397Z,37.78
2018-07-21T09:44:50.432Z,37.88
2018-07-21T09:45:50.404Z,37.88
2018-07-21T09:46:50.415Z,37.68
2018-07-21T09:47:50.162Z,37.88
2018-07-21T09:48:50.420Z,38.07
2018-07-21T09:49:50.420Z,38.56
2018-07-21T09:50:50.425Z,38.27
2018-07-21T09:51:50.430Z,38.17
2018-07-21T09:52:50.188Z,38.27
2018-07-21T09:53:50.441Z,38.37
2018-07-21T09:54:50.442Z,38.65
2018-07-21T09:55:50.637Z,38.75
2018-07-21T09:56:50.199Z,39.04
2018-07-21T09:57:50.453Z,38.37
2018-07-21T09:58:50.214Z,38.56
2018-07-21T09:59:50.225Z,38.48
2018-07-21T10:00:50.465Z,38.67
2018-07-21T10:01:50.685Z,38.29
2018-07-21T10:02:50.479Z,38.19
2018-07-21T10:03:50.481Z,37.9
2018-07-21T10:04:50.488Z,37.6
2018-07-21T10:05:50.497Z,37.8
2018-07-21T10:06:50.495Z,37.32
2018-07-21T10:07:50.495Z,37.22
2018-07-21T10:08:50.509Z,37.22
2018-07-21T10:09:50.506Z,37.41
2018-07-21T10:10:50.513Z,37.41
2018-07-21T10:11:50.260Z,37.88
2018-07-21T10:12:50.517Z,37.9
2018-07-21T10:13:50.521Z,37.41
2018-07-21T10:14:50.524Z,37.51
2018-07-21T10:15:50.277Z,37.41
2018-07-21T10:16:50.536Z,37.6
2018-07-21T10:17:50.539Z,37.02
2018-07-21T10:18:50.293Z,37.12
2018-07-21T10:19:50.550Z,36.93
2018-07-21T10:20:50.550Z,37.22
2018-07-21T10:21:50.661Z,37.41
2018-07-21T10:22:50.591Z,37.32
2018-07-21T10:23:50.575Z,37.22
2018-07-21T10:24:50.315Z,37.32
2018-07-21T10:25:50.572Z,37.7
2018-07-21T10:26:50.581Z,37.8
2018-07-21T10:27:50.331Z,37.8
2018-07-21T10:28:50.590Z,37.99
2018-07-21T10:29:50.587Z,37.8
2018-07-21T10:30:50.346Z,37.72
2018-07-21T10:31:50.596Z,37.62
2018-07-21T10:32:50.351Z,37.72
2018-07-21T10:33:50.604Z,37.82
2018-07-21T10:34:50.609Z,37.35
2018-07-21T10:35:50.652Z,36.57
2018-07-21T10:36:50.617Z,36.96
2018-07-21T10:37:50.624Z,36.87
2018-07-21T10:38:50.647Z,37.06
2018-07-21T10:39:50.635Z,37.45
2018-07-21T10:40:50.639Z,36.1
2018-07-21T10:41:50.639Z,36.1
2018-07-21T10:42:50.398Z,36.1
2018-07-21T10:43:50.647Z,36.1
2018-07-21T10:44:50.663Z,36.67
2018-07-21T10:45:50.661Z,35.99
2018-07-21T10:46:50.663Z,36.77
2018-07-21T10:47:50.665Z,37.35
2018-07-21T10:48:50.669Z,37.35
2018-07-21T10:49:50.674Z,37.26
2018-07-21T10:50:51.064Z,37.45
2018-07-21T10:51:50.683Z,37.26
2018-07-21T10:52:50.694Z,37.14
2018-07-21T10:53:50.690Z,37.14
2018-07-21T10:54:50.450Z,36.96
2018-07-21T10:55:50.698Z,36.18
2018-07-21T10:56:50.703Z,36.18
2018-07-21T10:57:50.713Z,36.18
2018-07-21T10:58:50.714Z,36.16
2018-07-21T10:59:50.724Z,37.06
2018-07-21T11:00:50.726Z,36.85
2018-07-21T11:01:50.726Z,37.24
2018-07-21T11:02:50.477Z,37.52
2018-07-21T11:03:50.735Z,37.64
2018-07-21T11:04:50.737Z,36.65
2018-07-21T11:05:50.744Z,37.35
2018-07-21T11:06:50.494Z,37.24
2018-07-21T11:07:50.749Z,37.52
2018-07-21T11:08:50.760Z,37.43
2018-07-21T11:09:50.758Z,37.24
2018-07-21T11:10:50.793Z,37.34
2018-07-21T11:11:50.768Z,37.82
2018-07-21T11:12:50.770Z,37.34
2018-07-21T11:13:50.772Z,37.16
2018-07-21T11:14:50.804Z,37.06
2018-07-21T11:15:50.788Z,37.54
2018-07-21T11:16:50.788Z,37.04
2018-07-21T11:17:50.798Z,36.87
2018-07-21T11:18:50.546Z,37.06
2018-07-21T11:19:50.799Z,37.35
2018-07-21T11:20:50.802Z,37.26
2018-07-21T11:21:51.099Z,37.06
2018-07-21T11:22:50.813Z,37.35
2018-07-21T11:23:50.816Z,37.35
2018-07-21T11:24:50.816Z,37.35
2018-07-21T11:25:50.824Z,37.06
2018-07-21T11:26:50.825Z,37.26
2018-07-21T11:27:50.833Z,37.06
2018-07-21T11:28:50.835Z,37.46
2018-07-21T11:29:50.843Z,36.98
2018-07-21T11:30:50.848Z,36.49
2018-07-21T11:31:50.598Z,36.61
2018-07-21T11:32:50.858Z,36.32
2018-07-21T11:33:50.862Z,36.02
2018-07-21T11:34:50.862Z,35.65
2018-07-21T11:35:51.307Z,36.06
2018-07-21T11:36:50.877Z,35.96
2018-07-21T11:37:50.875Z,36.45
2018-07-21T11:38:50.880Z,35.77
2018-07-21T11:39:50.888Z,34.89
2018-07-21T11:40:50.640Z,34.71
2018-07-21T11:41:50.896Z,34.81
2018-07-21T11:42:50.901Z,34.22
2018-07-21T11:43:50.918Z,34.22
2018-07-21T11:44:50.920Z,34.53
2018-07-21T11:45:50.917Z,34.24
2018-07-21T11:46:50.684Z,33.36
2018-07-21T11:47:50.929Z,33.65
2018-07-21T11:48:50.936Z,33.46
2018-07-21T11:49:50.940Z,33.26
2018-07-21T11:50:50.960Z,33.46
2018-07-21T11:51:50.965Z,33.67
2018-07-21T11:52:51.209Z,33.67
2018-07-21T11:53:50.964Z,33.48
2018-07-21T11:54:50.977Z,33.38
2018-07-21T11:55:50.986Z,32.7
2018-07-21T11:56:50.983Z,33.01
2018-07-21T11:57:50.741Z,33.4
2018-07-21T11:58:50.994Z,32.91
2018-07-21T11:59:51.003Z,32.71
2018-07-21T12:00:51.008Z,32.23
2018-07-21T12:01:51.112Z,32.24
2018-07-21T12:02:51.026Z,32.24
2018-07-21T12:03:51.027Z,31.64
2018-07-21T12:04:51.032Z,31.74
2018-07-21T12:05:50.789Z,32.32
2018-07-21T12:06:51.048Z,32.42
2018-07-21T12:07:51.053Z,32.81
2018-07-21T12:08:51.061Z,33.11
2018-07-21T12:09:51.065Z,33.2
2018-07-21T12:10:51.074Z,32.42
2018-07-21T12:11:51.081Z,32.14
2018-07-21T12:12:51.091Z,31.65
2018-07-21T12:13:51.100Z,31.93
2018-07-21T12:14:51.100Z,32.5
2018-07-21T12:15:51.111Z,32.97
2018-07-21T12:16:51.109Z,33.26
2018-07-21T12:17:51.117Z,33.54
2018-07-21T12:18:51.123Z,33.83
2018-07-21T12:19:51.131Z,33.93
2018-07-21T12:20:51.143Z,33.93
2018-07-21T12:21:50.894Z,34.59
2018-07-21T12:22:51.161Z,34.81
2018-07-21T12:23:51.402Z,34.81
2018-07-21T12:24:51.161Z,34.52
2018-07-21T12:25:51.164Z,34.52
2018-07-21T12:26:51.171Z,34.71
2018-07-21T12:27:51.176Z,34.91
2018-07-21T12:28:51.184Z,35.2
2018-07-21T12:29:51.187Z,36.08
2018-07-21T12:30:50.940Z,36.57
2018-07-21T12:31:51.202Z,35.78
2018-07-21T12:32:51.205Z,35.59
2018-07-21T12:33:51.216Z,34.91
2018-07-21T12:34:51.223Z,34.99
2018-07-21T12:35:51.219Z,35.18
2018-07-21T12:36:51.230Z,35.39
2018-07-21T12:37:51.274Z,35
2018-07-21T12:38:50.992Z,34.71
2018-07-21T12:39:51.253Z,34.81
2018-07-21T12:40:51.254Z,35.28
2018-07-21T12:41:51.250Z,35.08
2018-07-21T12:42:51.256Z,35.47
2018-07-21T12:43:51.264Z,34.99
2018-07-21T12:44:51.396Z,34.99
2018-07-21T12:45:51.277Z,35.38
2018-07-21T12:46:51.275Z,35.08
2018-07-21T12:47:51.287Z,35.08
2018-07-21T12:48:51.290Z,35.06
2018-07-21T12:49:51.290Z,34.97
2018-07-21T12:50:51.294Z,34.97
2018-07-21T12:51:51.298Z,35.16
2018-07-21T12:52:51.303Z,35.06
2018-07-21T12:53:51.309Z,34.97
2018-07-21T12:54:51.569Z,35.06
2018-07-21T12:55:51.066Z,35.06
2018-07-21T12:56:51.322Z,35.55